Agawam, Massachusetts
Current Conditions -  °F | °C
As of 8:53 AM on Wednesday 22 Oct 2014 (Local Time) from KBAF Reporting Station
Overcast Overcast  
Wind Chill: 11°   Ceiling: 1700
Heat Index: 11°   Visibility: 10mi
Dew Point:   Wind: 16mph
Humidity: 83%   Direction: 10°N
Pressure: 30.01"   Gusts: 23mph
Location:  42.07°N, 72.61°W
Report Text: KBAF 221253Z 01014G20KT 10SM OVC017 11/08 A3001 RMK AO2 RAB09E20 SLP165 P0000 T01110083
Loading
Personal Weather Stations






























Interactive Weather Map
Tropical Storm Tracking
New forecast layout! Learn more

10-Day Weather Forecast

Advertisements
Track Severe Weather on mobile